sensor_id;sensor_type;location;lat;lon;timestamp;pressure;altitude;pressure_sealevel;temperature;humidity
56064;BME280;41940;52.880;13.012;2022-10-18T00:01:48;101988.41;;;15.54;100.00
56064;BME280;41940;52.880;13.012;2022-10-18T00:04:13;101986.50;;;15.46;100.00
56064;BME280;41940;52.880;13.012;2022-10-18T00:06:39;101994.97;;;15.51;100.00
56064;BME280;41940;52.880;13.012;2022-10-18T00:09:04;101997.00;;;15.49;100.00
56064;BME280;41940;52.880;13.012;2022-10-18T00:11:30;101991.78;;;15.47;100.00
56064;BME280;41940;52.880;13.012;2022-10-18T00:13:56;101998.69;;;15.50;100.00
56064;BME280;41940;52.880;13.012;2022-10-18T00:16:22;101992.44;;;15.50;100.00
56064;BME280;41940;52.880;13.012;2022-10-18T00:18:48;101991.59;;;15.49;100.00
56064;BME280;41940;52.880;13.012;2022-10-18T00:21:17;101989.72;;;15.50;100.00
56064;BME280;41940;52.880;13.012;2022-10-18T00:23:44;101999.38;;;15.52;100.00
56064;BME280;41940;52.880;13.012;2022-10-18T00:26:12;102004.78;;;15.52;100.00
56064;BME280;41940;52.880;13.012;2022-10-18T00:28:38;102011.34;;;15.50;100.00
56064;BME280;41940;52.880;13.012;2022-10-18T00:31:14;102022.13;;;15.41;100.00
56064;BME280;41940;52.880;13.012;2022-10-18T00:33:42;102020.44;;;15.40;100.00
56064;BME280;41940;52.880;13.012;2022-10-18T00:36:08;102013.53;;;15.46;100.00
56064;BME280;41940;52.880;13.012;2022-10-18T00:38:34;102021.13;;;15.42;100.00
56064;BME280;41940;52.880;13.012;2022-10-18T00:41:00;102026.00;;;15.39;100.00
56064;BME280;41940;52.880;13.012;2022-10-18T00:43:25;102014.38;;;15.46;100.00
56064;BME280;41940;52.880;13.012;2022-10-18T00:45:51;102018.25;;;15.44;100.00
56064;BME280;41940;52.880;13.012;2022-10-18T00:48:17;102011.69;;;15.46;100.00
56064;BME280;41940;52.880;13.012;2022-10-18T00:50:44;102004.03;;;15.42;100.00
56064;BME280;41940;52.880;13.012;2022-10-18T00:53:15;102018.59;;;15.41;100.00
56064;BME280;41940;52.880;13.012;2022-10-18T00:55:41;102005.41;;;15.38;100.00
56064;BME280;41940;52.880;13.012;2022-10-18T00:58:07;102010.13;;;15.36;100.00
56064;BME280;41940;52.880;13.012;2022-10-18T01:00:34;102019.41;;;15.33;100.00
56064;BME280;41940;52.880;13.012;2022-10-18T01:03:04;102022.25;;;15.31;100.00
56064;BME280;41940;52.880;13.012;2022-10-18T01:05:30;102022.75;;;15.35;100.00
56064;BME280;41940;52.880;13.012;2022-10-18T01:08:00;102020.22;;;15.33;100.00
56064;BME280;41940;52.880;13.012;2022-10-18T01:13:09;102019.03;;;15.28;100.00
56064;BME280;41940;52.880;13.012;2022-10-18T01:15:58;102026.91;;;15.21;100.00
56064;BME280;41940;52.880;13.012;2022-10-18T01:18:32;102034.19;;;15.21;100.00
56064;BME280;41940;52.880;13.012;2022-10-18T01:31:56;102042.22;;;15.12;100.00
56064;BME280;41940;52.880;13.012;2022-10-18T01:34:25;102027.03;;;15.11;100.00
56064;BME280;41940;52.880;13.012;2022-10-18T01:36:54;102034.44;;;15.09;100.00
56064;BME280;41940;52.880;13.012;2022-10-18T01:39:24;102025.88;;;15.14;100.00
56064;BME280;41940;52.880;13.012;2022-10-18T01:41:52;102034.28;;;15.11;100.00
56064;BME280;41940;52.880;13.012;2022-10-18T01:44:25;102040.00;;;15.08;100.00
56064;BME280;41940;52.880;13.012;2022-10-18T01:46:52;102037.81;;;15.11;100.00
56064;BME280;41940;52.880;13.012;2022-10-18T01:49:19;102045.22;;;15.09;100.00
56064;BME280;41940;52.880;13.012;2022-10-18T01:51:45;102039.00;;;15.09;100.00
56064;BME280;41940;52.880;13.012;2022-10-18T01:54:13;102032.91;;;15.07;100.00
56064;BME280;41940;52.880;13.012;2022-10-18T02:08:01;102038.59;;;14.95;100.00
56064;BME280;41940;52.880;13.012;2022-10-18T02:10:40;102037.06;;;14.93;100.00
56064;BME280;41940;52.880;13.012;2022-10-18T02:13:10;102029.66;;;14.95;100.00
56064;BME280;41940;52.880;13.012;2022-10-18T02:15:40;102032.66;;;14.92;100.00
56064;BME280;41940;52.880;13.012;2022-10-18T02:18:11;102029.56;;;14.86;100.00
56064;BME280;41940;52.880;13.012;2022-10-18T02:20:38;102029.97;;;14.92;100.00
56064;BME280;41940;52.880;13.012;2022-10-18T02:23:07;102027.88;;;14.85;100.00
56064;BME280;41940;52.880;13.012;2022-10-18T02:25:35;102036.28;;;14.82;100.00
56064;BME280;41940;52.880;13.012;2022-10-18T02:28:02;102029.56;;;14.86;100.00
56064;BME280;41940;52.880;13.012;2022-10-18T02:30:45;102033.44;;;14.84;100.00
56064;BME280;41940;52.880;13.012;2022-10-18T02:33:29;102032.66;;;14.92;100.00
56064;BME280;41940;52.880;13.012;2022-10-18T02:36:17;102030.75;;;14.84;100.00
56064;BME280;41940;52.880;13.012;2022-10-18T02:38:44;102033.53;;;14.74;100.00
56064;BME280;41940;52.880;13.012;2022-10-18T02:41:11;102035.06;;;14.77;100.00
56064;BME280;41940;52.880;13.012;2022-10-18T02:43:36;102044.34;;;14.74;100.00
56064;BME280;41940;52.880;13.012;2022-10-18T02:46:02;102056.00;;;14.75;100.00
56064;BME280;41940;52.880;13.012;2022-10-18T02:48:28;102068.78;;;14.73;100.00
56064;BME280;41940;52.880;13.012;2022-10-18T02:50:53;102068.09;;;14.70;100.00
56064;BME280;41940;52.880;13.012;2022-10-18T02:53:19;102057.28;;;14.70;100.00
56064;BME280;41940;52.880;13.012;2022-10-18T02:55:44;102050.41;;;14.76;100.00
56064;BME280;41940;52.880;13.012;2022-10-18T02:58:10;102041.09;;;14.70;100.00
56064;BME280;41940;52.880;13.012;2022-10-18T03:00:35;102036.06;;;14.76;100.00
56064;BME280;41940;52.880;13.012;2022-10-18T03:03:00;102034.75;;;14.80;100.00
56064;BME280;41940;52.880;13.012;2022-10-18T03:05:26;102033.00;;;14.70;100.00
56064;BME280;41940;52.880;13.012;2022-10-18T03:07:51;102033.16;;;14.69;100.00
56064;BME280;41940;52.880;13.012;2022-10-18T03:10:17;102038.84;;;14.66;100.00
56064;BME280;41940;52.880;13.012;2022-10-18T03:12:42;102056.75;;;14.67;100.00
56064;BME280;41940;52.880;13.012;2022-10-18T03:15:08;102050.66;;;14.65;100.00
56064;BME280;41940;52.880;13.012;2022-10-18T03:17:34;102050.78;;;14.63;100.00
56064;BME280;41940;52.880;13.012;2022-10-18T03:19:59;102053.94;;;14.59;100.00
56064;BME280;41940;52.880;13.012;2022-10-18T03:22:25;102058.66;;;14.56;100.00
56064;BME280;41940;52.880;13.012;2022-10-18T03:24:52;102059.34;;;14.59;100.00
56064;BME280;41940;52.880;13.012;2022-10-18T03:27:18;102062.38;;;14.55;100.00
56064;BME280;41940;52.880;13.012;2022-10-18T03:29:43;102067.22;;;14.52;100.00
56064;BME280;41940;52.880;13.012;2022-10-18T03:32:09;102067.06;;;14.53;100.00
56064;BME280;41940;52.880;13.012;2022-10-18T03:34:34;102067.44;;;14.59;100.00
56064;BME280;41940;52.880;13.012;2022-10-18T03:37:00;102058.56;;;14.66;100.00
56064;BME280;41940;52.880;13.012;2022-10-18T03:39:26;102064.91;;;14.57;100.00
56064;BME280;41940;52.880;13.012;2022-10-18T03:41:51;102064.75;;;14.59;100.00
56064;BME280;41940;52.880;13.012;2022-10-18T03:44:16;102072.47;;;14.53;100.00
56064;BME280;41940;52.880;13.012;2022-10-18T03:46:42;102069.22;;;14.50;100.00
56064;BME280;41940;52.880;13.012;2022-10-18T03:49:08;102069.91;;;14.52;100.00
56064;BME280;41940;52.880;13.012;2022-10-18T03:51:33;102070.38;;;14.47;100.00
56064;BME280;41940;52.880;13.012;2022-10-18T03:53:59;102071.38;;;14.46;100.00
56064;BME280;41940;52.880;13.012;2022-10-18T03:56:24;102064.97;;;14.47;100.00
56064;BME280;41940;52.880;13.012;2022-10-18T03:58:50;102068.16;;;14.43;100.00
56064;BME280;41940;52.880;13.012;2022-10-18T04:01:15;102068.16;;;14.43;100.00
56064;BME280;41940;52.880;13.012;2022-10-18T04:03:40;102067.44;;;14.40;100.00
56064;BME280;41940;52.880;13.012;2022-10-18T04:06:06;102054.66;;;14.43;100.00
56064;BME280;41940;52.880;13.012;2022-10-18T04:08:34;102063.59;;;14.43;100.00
56064;BME280;41940;52.880;13.012;2022-10-18T04:11:04;102061.22;;;14.40;100.00
56064;BME280;41940;52.880;13.012;2022-10-18T04:13:29;102063.22;;;14.38;100.00
56064;BME280;41940;52.880;13.012;2022-10-18T04:15:55;102057.53;;;14.41;100.00
56064;BME280;41940;52.880;13.012;2022-10-18T04:18:20;102058.53;;;14.40;100.00
56064;BME280;41940;52.880;13.012;2022-10-18T04:20:45;102051.91;;;14.34;100.00
56064;BME280;41940;52.880;13.012;2022-10-18T04:23:11;102045.50;;;14.35;100.00
56064;BME280;41940;52.880;13.012;2022-10-18T04:25:36;102050.50;;;14.30;100.00
56064;BME280;41940;52.880;13.012;2022-10-18T04:28:02;102047.41;;;14.25;100.00
56064;BME280;41940;52.880;13.012;2022-10-18T04:30:28;102050.09;;;14.25;100.00
56064;BME280;41940;52.880;13.012;2022-10-18T04:32:54;102048.97;;;14.28;100.00
56064;BME280;41940;52.880;13.012;2022-10-18T04:35:19;102051.97;;;14.24;100.00
56064;BME280;41940;52.880;13.012;2022-10-18T04:37:49;102056.84;;;14.21;100.00
56064;BME280;41940;52.880;13.012;2022-10-18T04:40:14;102061.34;;;14.20;100.00
56064;BME280;41940;52.880;13.012;2022-10-18T04:42:40;102062.34;;;14.19;100.00
56064;BME280;41940;52.880;13.012;2022-10-18T04:45:06;102062.34;;;14.19;100.00
56064;BME280;41940;52.880;13.012;2022-10-18T04:47:31;102061.66;;;14.17;100.00
56064;BME280;41940;52.880;13.012;2022-10-18T04:49:57;102052.56;;;14.18;100.00
56064;BME280;41940;52.880;13.012;2022-10-18T04:52:22;102051.56;;;14.19;100.00
56064;BME280;41940;52.880;13.012;2022-10-18T04:54:48;102061.66;;;14.17;100.00
56064;BME280;41940;52.880;13.012;2022-10-18T04:57:14;102058.28;;;14.15;100.00
56064;BME280;41940;52.880;13.012;2022-10-18T04:59:40;102055.03;;;14.12;100.00
56064;BME280;41940;52.880;13.012;2022-10-18T05:02:05;102057.72;;;14.12;100.00
56064;BME280;41940;52.880;13.012;2022-10-18T05:04:31;102054.19;;;14.11;100.00
56064;BME280;41940;52.880;13.012;2022-10-18T05:06:56;102053.34;;;14.10;100.00
56064;BME280;41940;52.880;13.012;2022-10-18T05:09:22;102058.47;;;14.04;100.00
56064;BME280;41940;52.880;13.012;2022-10-18T05:11:49;102051.97;;;14.06;100.00
56064;BME280;41940;52.880;13.012;2022-10-18T05:14:15;102048.41;;;14.06;100.00
56064;BME280;41940;52.880;13.012;2022-10-18T05:16:40;102048.28;;;14.07;100.00
56064;BME280;41940;52.880;13.012;2022-10-18T05:19:06;102042.00;;;14.07;100.00
56064;BME280;41940;52.880;13.012;2022-10-18T05:21:32;102055.41;;;13.99;100.00
56064;BME280;41940;52.880;13.012;2022-10-18T05:23:57;102047.34;;;13.99;100.00
56064;BME280;41940;52.880;13.012;2022-10-18T05:26:23;102047.47;;;13.97;100.00
56064;BME280;41940;52.880;13.012;2022-10-18T05:28:49;102051.03;;;13.98;100.00
56064;BME280;41940;52.880;13.012;2022-10-18T05:31:15;102043.22;;;13.94;100.00
56064;BME280;41940;52.880;13.012;2022-10-18T05:33:40;102043.69;;;13.90;100.00
56064;BME280;41940;52.880;13.012;2022-10-18T05:36:06;102040.53;;;13.94;100.00
56064;BME280;41940;52.880;13.012;2022-10-18T05:38:32;102041.69;;;13.92;100.00
56064;BME280;41940;52.880;13.012;2022-10-18T05:40:58;102036.59;;;13.89;100.00
56064;BME280;41940;52.880;13.012;2022-10-18T05:43:27;102031.06;;;13.90;100.00
56064;BME280;41940;52.880;13.012;2022-10-18T05:45:53;102034.91;;;13.88;100.00
56064;BME280;41940;52.880;13.012;2022-10-18T05:48:18;102033.38;;;13.85;100.00
56064;BME280;41940;52.880;13.012;2022-10-18T05:50:44;102023.28;;;13.87;100.00
56064;BME280;41940;52.880;13.012;2022-10-18T05:53:10;102015.81;;;13.81;100.00
56064;BME280;41940;52.880;13.012;2022-10-18T05:55:36;102011.66;;;13.87;100.00
56064;BME280;41940;52.880;13.012;2022-10-18T05:58:02;102006.97;;;13.89;100.00
56064;BME280;41940;52.880;13.012;2022-10-18T06:00:28;102003.03;;;13.83;100.00
56064;BME280;41940;52.880;13.012;2022-10-18T06:02:54;102012.41;;;13.79;100.00
56064;BME280;41940;52.880;13.012;2022-10-18T06:05:20;102011.41;;;13.80;100.00
56064;BME280;41940;52.880;13.012;2022-10-18T06:07:45;102014.66;;;13.84;100.00
56064;BME280;41940;52.880;13.012;2022-10-18T06:10:11;102020.66;;;13.77;100.00
56064;BME280;41940;52.880;13.012;2022-10-18T06:12:37;102027.44;;;13.82;100.00
56064;BME280;41940;52.880;13.012;2022-10-18T06:15:02;102027.13;;;13.85;100.00
56064;BME280;41940;52.880;13.012;2022-10-18T06:17:28;102033.22;;;13.87;100.00
56064;BME280;41940;52.880;13.012;2022-10-18T06:19:53;102035.59;;;13.90;100.00
56064;BME280;41940;52.880;13.012;2022-10-18T06:22:19;102028.22;;;13.92;100.00
56064;BME280;41940;52.880;13.012;2022-10-18T06:24:44;102031.22;;;13.89;100.00
56064;BME280;41940;52.880;13.012;2022-10-18T06:27:10;102040.00;;;13.91;100.00
56064;BME280;41940;52.880;13.012;2022-10-18T06:29:36;102038.47;;;13.88;100.00
56064;BME280;41940;52.880;13.012;2022-10-18T06:32:02;102036.44;;;13.90;100.00
56064;BME280;41940;52.880;13.012;2022-10-18T06:34:28;102025.53;;;13.92;100.00
56064;BME280;41940;52.880;13.012;2022-10-18T06:36:54;102031.44;;;13.95;100.00
56064;BME280;41940;52.880;13.012;2022-10-18T06:39:19;102030.28;;;13.98;100.00
56064;BME280;41940;52.880;13.012;2022-10-18T06:41:45;102041.41;;;13.95;100.00
56064;BME280;41940;52.880;13.012;2022-10-18T06:44:10;102040.94;;;14.00;100.00
56064;BME280;41940;52.880;13.012;2022-10-18T06:46:44;102045.34;;;14.01;100.00
56064;BME280;41940;52.880;13.012;2022-10-18T06:49:11;102037.78;;;14.04;100.00
56064;BME280;41940;52.880;13.012;2022-10-18T06:51:36;102042.88;;;14.07;100.00
56064;BME280;41940;52.880;13.012;2022-10-18T06:54:02;102052.66;;;14.08;100.00
56064;BME280;41940;52.880;13.012;2022-10-18T06:56:28;102058.59;;;14.12;100.00
56064;BME280;41940;52.880;13.012;2022-10-18T06:58:54;102064.69;;;14.14;100.00
56064;BME280;41940;52.880;13.012;2022-10-18T07:01:20;102069.22;;;14.14;100.00
56064;BME280;41940;52.880;13.012;2022-10-18T07:03:46;102070.22;;;14.13;100.00
56064;BME280;41940;52.880;13.012;2022-10-18T07:06:13;102071.06;;;14.13;100.00
56064;BME280;41940;52.880;13.012;2022-10-18T07:08:40;102079.28;;;14.12;100.00
56064;BME280;41940;52.880;13.012;2022-10-18T07:11:06;102086.53;;;14.11;100.00
56064;BME280;41940;52.880;13.012;2022-10-18T07:13:33;102090.25;;;14.10;100.00
56064;BME280;41940;52.880;13.012;2022-10-18T07:16:04;102094.75;;;14.09;100.00
56064;BME280;41940;52.880;13.012;2022-10-18T07:18:38;102100.03;;;14.11;100.00
56064;BME280;41940;52.880;13.012;2022-10-18T07:21:06;102101.84;;;14.10;100.00
56064;BME280;41940;52.880;13.012;2022-10-18T07:23:33;102102.72;;;14.11;100.00
56064;BME280;41940;52.880;13.012;2022-10-18T07:25:59;102108.13;;;14.11;100.00
56064;BME280;41940;52.880;13.012;2022-10-18T07:28:26;102103.56;;;14.12;100.00
56064;BME280;41940;52.880;13.012;2022-10-18T07:30:52;102101.84;;;14.10;100.00
56064;BME280;41940;52.880;13.012;2022-10-18T07:33:18;102106.25;;;14.12;100.00
56064;BME280;41940;52.880;13.012;2022-10-18T07:35:45;102110.66;;;14.13;100.00
56064;BME280;41940;52.880;13.012;2022-10-18T07:38:10;102111.50;;;14.13;100.00
56064;BME280;41940;52.880;13.012;2022-10-18T07:40:36;102111.50;;;14.13;100.00
56064;BME280;41940;52.880;13.012;2022-10-18T07:43:02;102110.50;;;14.14;100.00
56064;BME280;41940;52.880;13.012;2022-10-18T07:45:27;102108.94;;;14.12;100.00
56064;BME280;41940;52.880;13.012;2022-10-18T07:47:54;102105.25;;;14.13;100.00
56064;BME280;41940;52.880;13.012;2022-10-18T07:50:20;102117.75;;;14.14;100.00
56064;BME280;41940;52.880;13.012;2022-10-18T07:52:46;102106.13;;;14.13;100.00
56064;BME280;41940;52.880;13.012;2022-10-18T07:55:11;102101.56;;;14.14;100.00
56064;BME280;41940;52.880;13.012;2022-10-18T07:57:37;102103.25;;;14.15;100.00
56064;BME280;41940;52.880;13.012;2022-10-18T08:00:02;102103.25;;;14.15;100.00
56064;BME280;41940;52.880;13.012;2022-10-18T08:02:28;102113.22;;;14.14;100.00
56064;BME280;41940;52.880;13.012;2022-10-18T08:04:53;102103.44;;;14.13;100.00
56064;BME280;41940;52.880;13.012;2022-10-18T08:07:19;102099.72;;;14.14;100.00
56064;BME280;41940;52.880;13.012;2022-10-18T08:09:45;102105.97;;;14.15;100.00
56064;BME280;41940;52.880;13.012;2022-10-18T08:12:10;102100.41;;;14.16;100.00
56064;BME280;41940;52.880;13.012;2022-10-18T08:14:35;102100.56;;;14.15;100.00
56064;BME280;41940;52.880;13.012;2022-10-18T08:17:01;102103.97;;;14.17;100.00
56064;BME280;41940;52.880;13.012;2022-10-18T08:19:26;102095.88;;;14.17;100.00
56064;BME280;41940;52.880;13.012;2022-10-18T08:21:52;102100.97;;;14.20;100.00
56064;BME280;41940;52.880;13.012;2022-10-18T08:24:17;102101.09;;;14.18;100.00
56064;BME280;41940;52.880;13.012;2022-10-18T08:26:43;102107.34;;;14.19;100.00
56064;BME280;41940;52.880;13.012;2022-10-18T08:29:08;102108.19;;;14.19;100.00
56064;BME280;41940;52.880;13.012;2022-10-18T08:31:35;102110.88;;;14.19;100.00
56064;BME280;41940;52.880;13.012;2022-10-18T08:34:01;102106.19;;;14.21;100.00
56064;BME280;41940;52.880;13.012;2022-10-18T08:36:26;102099.81;;;14.22;100.00
56064;BME280;41940;52.880;13.012;2022-10-18T08:38:52;102096.28;;;14.22;100.00
56064;BME280;41940;52.880;13.012;2022-10-18T08:44:20;102098.81;;;14.23;100.00
56064;BME280;41940;52.880;13.012;2022-10-18T08:46:51;102101.66;;;14.22;100.00
56064;BME280;41940;52.880;13.012;2022-10-18T08:49:26;102099.09;;;14.20;100.00
56064;BME280;41940;52.880;13.012;2022-10-18T08:51:54;102110.44;;;14.24;100.00
56064;BME280;41940;52.880;13.012;2022-10-18T08:57:02;102107.72;;;14.24;100.00
56064;BME280;41940;52.880;13.012;2022-10-18T08:59:35;102120.09;;;14.27;100.00
56064;BME280;41940;52.880;13.012;2022-10-18T09:05:15;102117.97;;;14.20;100.00
56064;BME280;41940;52.880;13.012;2022-10-18T09:15:57;102118.50;;;14.24;100.00
56064;BME280;41940;52.880;13.012;2022-10-18T09:21:21;102116.97;;;14.21;100.00
56064;BME280;41940;52.880;13.012;2022-10-18T09:26:18;102114.44;;;14.20;100.00
56064;BME280;41940;52.880;13.012;2022-10-18T09:29:06;102117.16;;;14.20;100.00
56064;BME280;41940;52.880;13.012;2022-10-18T09:31:54;102106.66;;;14.17;100.00
56064;BME280;41940;52.880;13.012;2022-10-18T09:34:45;102105.78;;;14.16;100.00
56064;BME280;41940;52.880;13.012;2022-10-18T09:37:17;102107.19;;;14.20;100.00
56064;BME280;41940;52.880;13.012;2022-10-18T09:39:44;102104.66;;;14.19;100.00
56064;BME280;41940;52.880;13.012;2022-10-18T09:42:39;102096.69;;;14.17;100.00
56064;BME280;41940;52.880;13.012;2022-10-18T09:47:46;102089.78;;;14.15;100.00
56064;BME280;41940;52.880;13.012;2022-10-18T09:52:53;102088.63;;;14.17;100.00
56064;BME280;41940;52.880;13.012;2022-10-18T09:55:30;102074.47;;;14.15;100.00
56064;BME280;41940;52.880;13.012;2022-10-18T09:58:01;102086.25;;;14.14;100.00
56064;BME280;41940;52.880;13.012;2022-10-18T10:00:31;102079.16;;;14.13;100.00
56064;BME280;41940;52.880;13.012;2022-10-18T10:03:09;102085.25;;;14.15;100.00
56064;BME280;41940;52.880;13.012;2022-10-18T10:05:36;102086.09;;;14.16;100.00
56064;BME280;41940;52.880;13.012;2022-10-18T10:08:02;102088.78;;;14.16;100.00
56064;BME280;41940;52.880;13.012;2022-10-18T10:10:29;102092.00;;;14.19;100.00
56064;BME280;41940;52.880;13.012;2022-10-18T10:15:51;102080.22;;;14.20;100.00
56064;BME280;41940;52.880;13.012;2022-10-18T10:18:33;102078.22;;;14.22;100.00
56064;BME280;41940;52.880;13.012;2022-10-18T10:21:04;102074.38;;;14.25;100.00
56064;BME280;41940;52.880;13.012;2022-10-18T10:23:36;102063.28;;;14.28;100.00
56064;BME280;41940;52.880;13.012;2022-10-18T10:26:06;102077.19;;;14.33;100.00
56064;BME280;41940;52.880;13.012;2022-10-18T10:28:44;102070.78;;;14.34;100.00
56064;BME280;41940;52.880;13.012;2022-10-18T10:33:47;102083.81;;;14.39;100.00
56064;BME280;41940;52.880;13.012;2022-10-18T10:36:18;102081.47;;;14.44;100.00
56064;BME280;41940;52.880;13.012;2022-10-18T10:38:44;102080.63;;;14.44;100.00
56064;BME280;41940;52.880;13.012;2022-10-18T10:41:22;102085.34;;;14.41;100.00
56064;BME280;41940;52.880;13.012;2022-10-18T10:43:49;102092.06;;;14.55;100.00
56064;BME280;41940;52.880;13.012;2022-10-18T10:46:18;102089.34;;;14.55;100.00
56064;BME280;41940;52.880;13.012;2022-10-18T10:48:50;102086.66;;;14.55;100.00
56064;BME280;41940;52.880;13.012;2022-10-18T10:51:26;102087.66;;;14.54;100.00
56064;BME280;41940;52.880;13.012;2022-10-18T10:56:28;102095.13;;;14.61;100.00
56064;BME280;41940;52.880;13.012;2022-10-18T10:58:59;102086.25;;;14.50;100.00
56064;BME280;41940;52.880;13.012;2022-10-18T11:01:32;102086.09;;;14.52;100.00
56064;BME280;41940;52.880;13.012;2022-10-18T11:04:01;102079.56;;;14.54;100.00
56064;BME280;41940;52.880;13.012;2022-10-18T11:12:24;102072.94;;;14.49;100.00
56064;BME280;41940;52.880;13.012;2022-10-18T11:20:25;102072.38;;;14.45;100.00
56064;BME280;41940;52.880;13.012;2022-10-18T11:23:07;102069.91;;;14.52;100.00
56064;BME280;41940;52.880;13.012;2022-10-18T11:31:30;102052.94;;;14.78;100.00
56064;BME280;41940;52.880;13.012;2022-10-18T11:34:27;102048.78;;;14.83;100.00
56064;BME280;41940;52.880;13.012;2022-10-18T11:54:37;102022.09;;;15.33;100.00
56064;BME280;41940;52.880;13.012;2022-10-18T12:05:17;102028.91;;;15.11;100.00
56064;BME280;41940;52.880;13.012;2022-10-18T12:07:57;102021.75;;;15.01;100.00
56064;BME280;41940;52.880;13.012;2022-10-18T12:10:28;102027.69;;;15.05;100.00
56064;BME280;41940;52.880;13.012;2022-10-18T12:12:58;102030.66;;;14.94;100.00
56064;BME280;41940;52.880;13.012;2022-10-18T12:15:28;102025.28;;;15.02;100.00
56064;BME280;41940;52.880;13.012;2022-10-18T12:17:57;102023.69;;;14.91;100.00
56064;BME280;41940;52.880;13.012;2022-10-18T12:20:39;102025.41;;;14.92;100.00
56064;BME280;41940;52.880;13.012;2022-10-18T12:23:15;102019.84;;;14.94;100.00
56064;BME280;41940;52.880;13.012;2022-10-18T12:25:46;102011.75;;;14.94;100.00
56064;BME280;41940;52.880;13.012;2022-10-18T12:33:45;102009.38;;;14.91;100.00
56064;BME280;41940;52.880;13.012;2022-10-18T12:38:52;102000.88;;;14.85;100.00
56064;BME280;41940;52.880;13.012;2022-10-18T12:41:26;102010.75;;;14.95;100.00
56064;BME280;41940;52.880;13.012;2022-10-18T12:43:56;102004.75;;;14.83;100.00
56064;BME280;41940;52.880;13.012;2022-10-18T12:46:23;102003.09;;;14.90;100.00
56064;BME280;41940;52.880;13.012;2022-10-18T12:49:02;102001.78;;;14.94;100.00
56064;BME280;41940;52.880;13.012;2022-10-18T12:51:28;101999.97;;;14.95;100.00
56064;BME280;41940;52.880;13.012;2022-10-18T13:09:39;101993.72;;;15.29;100.00
56064;BME280;41940;52.880;13.012;2022-10-18T13:14:58;101989.13;;;15.21;100.00
56064;BME280;41940;52.880;13.012;2022-10-18T13:20:22;101988.09;;;15.14;100.00
56064;BME280;41940;52.880;13.012;2022-10-18T13:23:29;101983.41;;;14.98;100.00
56064;BME280;41940;52.880;13.012;2022-10-18T13:26:03;101996.88;;;14.90;100.00
56064;BME280;41940;52.880;13.012;2022-10-18T13:28:45;101995.16;;;14.80;100.00
56064;BME280;41940;52.880;13.012;2022-10-18T13:34:25;101999.53;;;14.63;100.00
56064;BME280;41940;52.880;13.012;2022-10-18T13:37:03;101999.53;;;14.63;100.00
56064;BME280;41940;52.880;13.012;2022-10-18T13:39:30;101999.31;;;14.56;100.00
56064;BME280;41940;52.880;13.012;2022-10-18T13:44:32;101990.63;;;14.45;100.00
56064;BME280;41940;52.880;13.012;2022-10-18T13:49:52;102003.81;;;14.48;100.00
56064;BME280;41940;52.880;13.012;2022-10-18T13:52:46;102009.03;;;14.49;100.00
56064;BME280;41940;52.880;13.012;2022-10-18T14:01:35;102005.75;;;14.19;100.00
56064;BME280;41940;52.880;13.012;2022-10-18T14:04:15;102004.56;;;14.04;100.00
56064;BME280;41940;52.880;13.012;2022-10-18T14:06:47;102009.53;;;14.08;100.00
56064;BME280;41940;52.880;13.012;2022-10-18T14:09:23;102009.97;;;14.04;100.00
56064;BME280;41940;52.880;13.012;2022-10-18T14:11:53;102003.03;;;14.01;100.00
56064;BME280;41940;52.880;13.012;2022-10-18T14:14:42;102014.22;;;14.06;100.00
56064;BME280;41940;52.880;13.012;2022-10-18T14:17:13;102015.75;;;13.91;100.00
56064;BME280;41940;52.880;13.012;2022-10-18T14:19:43;102021.31;;;13.89;100.00
56064;BME280;41940;52.880;13.012;2022-10-18T14:22:25;102019.19;;;13.83;100.00
56064;BME280;41940;52.880;13.012;2022-10-18T14:24:55;102025.19;;;13.77;100.00
56064;BME280;41940;52.880;13.012;2022-10-18T14:27:26;102024.34;;;13.76;100.00
56064;BME280;41940;52.880;13.012;2022-10-18T14:30:14;102023.41;;;13.68;100.00
56064;BME280;41940;52.880;13.012;2022-10-18T14:32:51;102026.84;;;13.60;100.00
56064;BME280;41940;52.880;13.012;2022-10-18T14:35:24;102031.13;;;13.53;100.00
56064;BME280;41940;52.880;13.012;2022-10-18T14:37:53;102029.16;;;13.55;100.00
56064;BME280;41940;52.880;13.012;2022-10-18T14:40:29;102027.59;;;13.52;100.00
56064;BME280;41940;52.880;13.012;2022-10-18T14:42:55;102032.16;;;13.42;100.00
56064;BME280;41940;52.880;13.012;2022-10-18T14:45:21;102028.91;;;13.38;100.00
56064;BME280;41940;52.880;13.012;2022-10-18T14:47:48;102031.06;;;13.25;100.00
56064;BME280;41940;52.880;13.012;2022-10-18T14:50:21;102032.22;;;13.22;100.00
56064;BME280;41940;52.880;13.012;2022-10-18T14:52:46;102028.41;;;13.15;100.00
56064;BME280;41940;52.880;13.012;2022-10-18T14:55:22;102028.59;;;13.03;100.00
56064;BME280;41940;52.880;13.012;2022-10-18T14:57:49;102025.22;;;12.92;100.00
56064;BME280;41940;52.880;13.012;2022-10-18T15:00:26;102027.50;;;12.86;100.00
56064;BME280;41940;52.880;13.012;2022-10-18T15:02:53;102023.25;;;12.84;100.00
56064;BME280;41940;52.880;13.012;2022-10-18T15:05:21;102017.19;;;12.72;100.00
56064;BME280;41940;52.880;13.012;2022-10-18T15:07:48;102028.69;;;12.64;100.00